Time;durP1;ratioP1;P1;durP2;ratioP2;P2;SDS_P1;SDS_P2;PMS_P1;PMS_P2;Temp;Humidity;BMP_temperature;BMP_pressure;BME280_temperature;BME280_humidity;BME280_pressure;Samples;Min_cycle;Max_cycle;Signal;HPM_P1;HPM_P2
2021/01/18 00:00:12;;;;;;;31.43;13.13;;;-0.60;99.90;;;;;;4997539;28;20450;-46
2021/01/18 00:02:39;;;;;;;24.87;12.27;;;-0.60;99.90;;;;;;4997436;28;20510;-53
2021/01/18 00:05:07;;;;;;;30.63;12.90;;;-0.70;99.90;;;;;;4996871;28;20482;-50
2021/01/18 00:07:43;;;;;;;28.80;13.73;;;-0.70;99.90;;;;;;4997315;28;20427;-49
2021/01/18 00:10:15;;;;;;;27.93;13.20;;;-0.70;99.90;;;;;;4997499;28;20411;-51
2021/01/18 00:12:47;;;;;;;31.40;14.60;;;-0.80;99.90;;;;;;4996997;28;20460;-52
2021/01/18 00:15:15;;;;;;;24.87;12.70;;;-0.80;99.90;;;;;;4997048;28;20447;-51
2021/01/18 00:17:41;;;;;;;30.10;13.70;;;-0.80;99.90;;;;;;4997074;28;20478;-51
2021/01/18 00:20:09;;;;;;;33.70;12.60;;;-0.90;99.90;;;;;;4997360;28;20434;-51
2021/01/18 00:22:38;;;;;;;24.60;13.10;;;-0.90;99.90;;;;;;4997287;28;20443;-52
2021/01/18 00:25:08;;;;;;;27.40;12.77;;;-1.00;99.90;;;;;;4997143;28;20469;-51
2021/01/18 00:27:35;;;;;;;28.33;12.37;;;-1.00;99.90;;;;;;4999191;28;20446;-51
2021/01/18 00:30:04;;;;;;;21.37;12.30;;;-1.00;99.90;;;;;;5001252;28;20443;-47
2021/01/18 00:32:31;;;;;;;25.33;14.00;;;-1.00;99.90;;;;;;5000927;28;20490;-50
2021/01/18 00:34:57;;;;;;;31.97;12.47;;;-1.10;99.90;;;;;;5001245;28;20439;-50
2021/01/18 00:37:23;;;;;;;32.07;14.23;;;-1.00;99.90;;;;;;5001079;28;20453;-48
2021/01/18 00:39:50;;;;;;;41.43;16.30;;;-1.00;99.90;;;;;;5001090;28;20510;-49
2021/01/18 00:42:21;;;;;;;33.37;13.67;;;-1.10;99.90;;;;;;5001275;28;20490;-50
2021/01/18 00:44:48;;;;;;;19.23;10.83;;;-1.10;99.90;;;;;;5001156;28;20437;-50
2021/01/18 00:47:15;;;;;;;23.10;11.60;;;-1.20;99.90;;;;;;5001374;28;20477;-46
2021/01/18 00:49:41;;;;;;;26.23;14.40;;;-1.20;99.90;;;;;;5001416;28;20470;-45
2021/01/18 00:52:12;;;;;;;25.73;12.60;;;-1.20;99.90;;;;;;5000844;28;20470;-44
2021/01/18 00:54:39;;;;;;;29.70;13.33;;;-1.20;99.90;;;;;;5001086;28;20422;-48
2021/01/18 00:57:05;;;;;;;27.83;13.47;;;-1.20;99.90;;;;;;5000724;28;20479;-42
2021/01/18 00:59:33;;;;;;;23.10;12.00;;;-1.20;99.90;;;;;;5001060;28;20463;-44
2021/01/18 01:01:59;;;;;;;20.93;11.97;;;-1.20;99.90;;;;;;5001079;28;20438;-44
2021/01/18 01:04:26;;;;;;;24.70;12.20;;;-1.20;99.90;;;;;;5000736;28;20446;-48
2021/01/18 01:06:52;;;;;;;30.30;12.57;;;-1.20;99.90;;;;;;5001159;28;20431;-46
2021/01/18 01:09:18;;;;;;;29.33;13.30;;;-1.20;99.90;;;;;;5000754;28;20467;-42
2021/01/18 01:11:45;;;;;;;27.30;14.33;;;-1.30;99.90;;;;;;5000184;28;20458;-46
2021/01/18 01:14:11;;;;;;;26.47;14.00;;;-1.30;99.90;;;;;;5000071;28;20454;-44
2021/01/18 01:16:41;;;;;;;20.60;11.57;;;-1.30;99.90;;;;;;5000306;28;20457;-43
2021/01/18 01:19:09;;;;;;;25.57;13.00;;;-1.30;99.90;;;;;;5000124;28;20474;-43
2021/01/18 01:21:35;;;;;;;29.47;15.03;;;-1.30;99.90;;;;;;4999998;28;20481;-47
2021/01/18 01:24:02;;;;;;;24.43;13.43;;;-1.30;99.90;;;;;;4999783;28;20423;-44
2021/01/18 01:26:28;;;;;;;26.33;11.13;;;-1.20;99.90;;;;;;4999673;28;20451;-44
2021/01/18 01:28:54;;;;;;;29.03;14.20;;;-1.20;99.90;;;;;;4999712;28;20467;-44
2021/01/18 01:31:23;;;;;;;22.20;13.30;;;-1.20;99.90;;;;;;4999919;28;20434;-42
2021/01/18 01:33:51;;;;;;;25.90;14.77;;;-1.20;99.90;;;;;;5000124;28;20447;-49
2021/01/18 01:36:17;;;;;;;31.53;15.07;;;-1.20;99.90;;;;;;5000282;28;20509;-42
2021/01/18 01:38:44;;;;;;;27.03;14.20;;;-1.20;99.90;;;;;;4999308;28;20490;-42
2021/01/18 01:41:10;;;;;;;26.37;14.43;;;-1.20;99.90;;;;;;5000193;28;20454;-42
2021/01/18 01:43:36;;;;;;;29.97;14.30;;;-1.20;99.90;;;;;;4999753;28;20451;-47
2021/01/18 01:46:03;;;;;;;30.53;13.40;;;-1.10;99.90;;;;;;5000263;28;20471;-41
2021/01/18 01:48:30;;;;;;;32.20;12.00;;;-1.20;99.90;;;;;;4999825;28;20454;-41
2021/01/18 01:50:58;;;;;;;29.80;13.13;;;-1.20;99.90;;;;;;4986277;28;20454;-42
2021/01/18 01:53:29;;;;;;;32.83;16.23;;;-1.20;99.90;;;;;;4980031;29;20448;-42
2021/01/18 01:55:56;;;;;;;28.43;13.47;;;-1.20;99.90;;;;;;4979261;29;20452;-45
2021/01/18 01:58:24;;;;;;;21.37;12.67;;;-1.20;99.90;;;;;;4980102;29;20503;-47
2021/01/18 02:00:51;;;;;;;32.23;14.17;;;-1.30;99.90;;;;;;4983042;28;20471;-44
2021/01/18 02:03:24;;;;;;;28.53;15.37;;;-1.30;99.90;;;;;;4999794;28;20433;-42
2021/01/18 02:05:54;;;;;;;29.20;13.80;;;-1.30;99.90;;;;;;4999836;28;20498;-46
2021/01/18 02:08:21;;;;;;;23.63;12.13;;;-1.30;99.90;;;;;;4999749;28;20435;-43
2021/01/18 02:10:47;;;;;;;26.13;13.53;;;-1.30;99.90;;;;;;4999898;28;20473;-45
2021/01/18 02:13:25;;;;;;;24.43;12.57;;;-1.30;99.90;;;;;;4999140;28;20451;-48
2021/01/18 02:16:02;;;;;;;35.67;16.23;;;-1.30;99.90;;;;;;4999032;28;20455;-45
2021/01/18 02:18:47;;;;;;;26.17;14.57;;;-1.30;99.90;;;;;;4998874;28;20455;-50
2021/01/18 02:22:04;;;;;;;29.90;13.73;;;-1.30;99.90;;;;;;4985470;28;20418;-45
2021/01/18 02:25:05;;;;;;;28.53;14.63;;;-1.40;99.90;;;;;;4975001;28;20908;-43
2021/01/18 02:28:26;;;;;;;31.13;16.20;;;-1.50;99.90;;;;;;4975669;28;20443;-46
2021/01/18 02:31:21;;;;;;;27.10;13.17;;;-1.50;99.90;;;;;;4896965;29;20466;-45
2021/01/18 02:34:35;;;;;;;29.33;13.80;;;-1.50;99.90;;;;;;4972118;28;20514;-49
2021/01/18 02:37:52;;;;;;;24.80;13.47;;;-1.50;99.90;;;;;;4975766;28;20526;-45
2021/01/18 02:40:28;;;;;;;21.93;13.13;;;-1.60;99.90;;;;;;4897160;29;20851;-43
2021/01/18 02:42:59;;;;;;;28.90;16.23;;;-1.50;99.90;;;;;;4896761;29;20530;-43
2021/01/18 02:45:27;;;;;;;33.93;16.40;;;-1.50;99.90;;;;;;4937753;28;20541;-42
2021/01/18 02:48:26;;;;;;;23.33;12.77;;;-1.60;99.90;;;;;;4976822;28;20440;-45
2021/01/18 02:50:58;;;;;;;31.03;14.57;;;-1.50;99.90;;;;;;4978416;28;20448;-44
2021/01/18 02:53:25;;;;;;;26.93;13.60;;;-1.50;99.90;;;;;;4979141;29;20432;-47
2021/01/18 02:55:52;;;;;;;33.57;15.60;;;-1.50;99.90;;;;;;4979359;29;20468;-43
2021/01/18 02:58:22;;;;;;;36.23;13.40;;;-1.50;99.90;;;;;;4979014;28;20463;-45
2021/01/18 03:00:56;;;;;;;29.03;14.43;;;-1.50;99.90;;;;;;4979520;29;20456;-45
2021/01/18 03:03:31;;;;;;;28.77;14.53;;;-1.50;99.90;;;;;;4979421;29;20499;-42
2021/01/18 03:06:07;;;;;;;31.50;14.90;;;-1.50;99.90;;;;;;4979329;29;20524;-41
2021/01/18 03:08:37;;;;;;;36.73;14.73;;;-1.50;99.90;;;;;;4979737;29;20446;-44
2021/01/18 03:11:10;;;;;;;29.97;13.93;;;-1.50;99.90;;;;;;4979797;29;20424;-47
2021/01/18 03:13:42;;;;;;;28.93;15.37;;;-1.50;99.90;;;;;;4979351;29;20439;-43
2021/01/18 03:16:14;;;;;;;31.43;14.90;;;-1.50;99.90;;;;;;4979540;28;20503;-47
2021/01/18 03:18:44;;;;;;;26.17;13.20;;;-1.50;99.90;;;;;;4979447;29;20464;-49
2021/01/18 03:21:11;;;;;;;36.23;19.27;;;-1.50;99.90;;;;;;4978539;29;20444;-48
2021/01/18 03:23:40;;;;;;;30.67;14.53;;;-1.40;99.90;;;;;;4979574;28;20464;-43
2021/01/18 03:26:07;;;;;;;33.67;16.23;;;-1.40;99.90;;;;;;4998360;28;20434;-47
2021/01/18 03:28:34;;;;;;;29.83;15.43;;;-1.40;99.90;;;;;;4997492;28;20518;-49
2021/01/18 03:31:00;;;;;;;28.17;14.50;;;-1.40;99.90;;;;;;4997620;28;20459;-49
2021/01/18 03:33:28;;;;;;;29.63;13.80;;;-1.40;99.90;;;;;;4997669;28;20451;-49
2021/01/18 03:35:56;;;;;;;29.33;15.87;;;-1.40;99.90;;;;;;4998214;28;20504;-45
2021/01/18 03:38:25;;;;;;;42.03;16.80;;;-1.40;99.90;;;;;;4996969;28;20534;-46
2021/01/18 03:41:04;;;;;;;30.70;15.67;;;-1.40;99.90;;;;;;4997962;28;20415;-47
2021/01/18 03:43:37;;;;;;;26.57;16.10;;;-1.40;99.90;;;;;;4997777;28;20498;-48
2021/01/18 03:46:06;;;;;;;36.33;17.10;;;-1.40;99.90;;;;;;4996973;28;20467;-45
2021/01/18 03:48:32;;;;;;;36.70;15.30;;;-1.40;99.90;;;;;;4997821;28;20842;-43
2021/01/18 03:50:59;;;;;;;34.77;15.07;;;-1.40;99.90;;;;;;4997676;28;20446;-44
2021/01/18 03:53:25;;;;;;;28.23;13.47;;;-1.40;99.90;;;;;;4998492;28;20462;-49
2021/01/18 03:55:52;;;;;;;32.40;14.87;;;-1.40;99.90;;;;;;4998797;28;20427;-46
2021/01/18 03:58:18;;;;;;;30.47;14.83;;;-1.40;99.90;;;;;;4998293;28;20479;-45
2021/01/18 04:00:46;;;;;;;42.50;16.53;;;-1.50;99.90;;;;;;4997671;28;20443;-49
2021/01/18 04:03:12;;;;;;;37.23;14.60;;;-1.50;99.90;;;;;;5000249;28;20454;-46
2021/01/18 04:05:40;;;;;;;41.57;16.80;;;-1.50;99.90;;;;;;5001781;28;20466;-46
2021/01/18 04:08:06;;;;;;;31.13;14.20;;;-1.50;99.90;;;;;;5001559;28;20447;-47
2021/01/18 04:10:33;;;;;;;26.80;14.57;;;-1.50;99.90;;;;;;5001650;28;20774;-42
2021/01/18 04:12:59;;;;;;;32.60;13.93;;;-1.50;99.90;;;;;;5002120;28;20431;-43
2021/01/18 04:15:27;;;;;;;29.40;13.43;;;-1.50;99.90;;;;;;5001892;28;20453;-44
2021/01/18 04:17:56;;;;;;;28.83;14.97;;;-1.50;99.90;;;;;;5001834;28;20470;-48
2021/01/18 04:20:23;;;;;;;28.30;15.30;;;-1.50;99.90;;;;;;5002346;28;20471;-49
2021/01/18 04:22:50;;;;;;;32.47;15.57;;;-1.50;99.90;;;;;;5001514;28;20450;-43
2021/01/18 04:25:19;;;;;;;32.03;14.27;;;-1.50;99.90;;;;;;5000742;28;20442;-44
2021/01/18 04:27:47;;;;;;;29.20;17.17;;;-1.50;99.90;;;;;;5000837;28;20442;-44
2021/01/18 04:30:14;;;;;;;30.97;14.53;;;-1.50;99.90;;;;;;5000163;28;20454;-45
2021/01/18 04:32:41;;;;;;;27.70;13.57;;;-1.50;99.90;;;;;;5000562;28;20442;-47
2021/01/18 04:35:09;;;;;;;26.97;12.80;;;-1.50;99.90;;;;;;5000523;28;20816;-44
2021/01/18 04:37:36;;;;;;;27.73;13.93;;;-1.50;99.90;;;;;;5000861;28;20450;-47
2021/01/18 04:40:05;;;;;;;27.87;16.17;;;-1.50;99.90;;;;;;5000240;28;20442;-41
2021/01/18 04:42:33;;;;;;;29.10;14.87;;;-1.50;99.90;;;;;;5000460;28;20454;-47
2021/01/18 04:45:00;;;;;;;32.50;15.00;;;-1.50;99.90;;;;;;5000536;28;20453;-46
2021/01/18 04:47:27;;;;;;;33.37;16.60;;;-1.40;99.90;;;;;;4999938;28;20423;-50
2021/01/18 04:49:56;;;;;;;40.70;17.50;;;-1.40;99.90;;;;;;5000203;28;20443;-50
2021/01/18 04:52:33;;;;;;;27.73;14.20;;;-1.40;99.90;;;;;;5000620;28;20435;-47
2021/01/18 04:55:03;;;;;;;32.80;15.73;;;-1.40;99.90;;;;;;5000382;28;20470;-45
2021/01/18 04:57:37;;;;;;;34.67;16.13;;;-1.40;99.90;;;;;;5000136;28;20438;-50
2021/01/18 05:00:05;;;;;;;31.80;15.20;;;-1.40;99.90;;;;;;5263776;23;20451;-41
2021/01/18 05:02:39;;;;;;;29.73;15.30;;;-1.50;99.90;;;;;;5207280;23;20484;-46
2021/01/18 05:05:21;;;;;;;28.07;15.17;;;-1.40;99.90;;;;;;4980529;29;20423;-49
2021/01/18 05:08:31;;;;;;;25.73;13.37;;;-1.50;99.90;;;;;;4980811;29;20463;-45
2021/01/18 05:10:58;;;;;;;27.27;13.90;;;-1.40;99.90;;;;;;4980383;29;20412;-48
2021/01/18 05:13:24;;;;;;;33.93;17.37;;;-1.50;99.90;;;;;;4979977;28;20452;-49
2021/01/18 05:15:53;;;;;;;35.43;16.20;;;-1.50;99.90;;;;;;4980220;29;20431;-48
2021/01/18 05:18:31;;;;;;;25.87;14.63;;;-1.50;99.90;;;;;;4980166;29;20468;-43
2021/01/18 05:21:00;;;;;;;41.57;18.63;;;-1.40;99.90;;;;;;4980240;29;20492;-48
2021/01/18 05:23:27;;;;;;;33.90;16.43;;;-1.40;99.90;;;;;;4980128;29;20436;-45
2021/01/18 05:26:16;;;;;;;31.27;17.37;;;-1.40;99.90;;;;;;4980087;29;20460;-47
2021/01/18 05:28:46;;;;;;;31.17;14.43;;;-1.40;99.90;;;;;;4980646;29;20444;-51
2021/01/18 05:31:33;;;;;;;32.30;17.90;;;-1.30;99.90;;;;;;4980903;28;20470;-45
2021/01/18 05:34:01;;;;;;;38.00;16.03;;;-1.30;99.90;;;;;;4981453;29;20439;-44
2021/01/18 05:36:38;;;;;;;27.37;15.80;;;-1.20;99.90;;;;;;4981272;28;20460;-46
2021/01/18 05:39:16;;;;;;;29.33;15.63;;;-1.20;99.90;;;;;;4981114;29;20471;-46
2021/01/18 05:41:44;;;;;;;37.20;17.40;;;-1.20;99.90;;;;;;4980891;29;20420;-42
2021/01/18 05:44:11;;;;;;;29.03;15.47;;;-1.20;99.90;;;;;;4979828;29;20483;-45
2021/01/18 05:46:39;;;;;;;26.87;13.90;;;-1.20;99.90;;;;;;4979735;29;20455;-44
2021/01/18 05:49:11;;;;;;;27.10;13.50;;;-1.20;99.90;;;;;;4979652;29;20436;-49
2021/01/18 05:51:39;;;;;;;34.43;15.53;;;-1.20;99.90;;;;;;4979805;29;20892;-43
2021/01/18 05:54:10;;;;;;;24.67;15.03;;;-1.20;99.90;;;;;;4979777;29;20436;-45
2021/01/18 05:56:42;;;;;;;32.20;14.73;;;-1.20;99.90;;;;;;4980046;29;20432;-44
2021/01/18 05:59:16;;;;;;;27.03;13.70;;;-1.20;99.90;;;;;;4980089;29;20495;-42
2021/01/18 06:01:43;;;;;;;31.37;13.83;;;-1.20;99.90;;;;;;4979934;29;20469;-42
2021/01/18 06:04:11;;;;;;;29.77;14.93;;;-1.20;99.90;;;;;;4981403;28;20460;-42
2021/01/18 06:06:37;;;;;;;29.63;15.10;;;-1.20;99.90;;;;;;4981335;28;20448;-42
2021/01/18 06:09:04;;;;;;;31.27;14.37;;;-1.30;99.90;;;;;;4980759;28;20444;-42
2021/01/18 06:11:31;;;;;;;34.03;16.00;;;-1.30;99.90;;;;;;4979913;29;20435;-44
2021/01/18 06:14:02;;;;;;;35.23;16.90;;;-1.30;99.90;;;;;;4999178;28;20465;-45
2021/01/18 06:16:30;;;;;;;28.57;15.47;;;-1.30;99.90;;;;;;4999066;28;20463;-42
2021/01/18 06:19:08;;;;;;;30.37;16.63;;;-1.30;99.90;;;;;;4998771;28;20531;-42
2021/01/18 06:21:36;;;;;;;29.80;15.27;;;-1.30;99.90;;;;;;4999976;28;20431;-44
2021/01/18 06:24:27;;;;;;;33.20;16.37;;;-1.30;99.90;;;;;;5000156;28;20435;-46
2021/01/18 06:26:54;;;;;;;23.80;13.87;;;-1.40;99.90;;;;;;5000025;28;20462;-43
2021/01/18 06:29:43;;;;;;;40.93;16.30;;;-1.40;99.90;;;;;;5000416;28;20467;-51
2021/01/18 06:32:13;;;;;;;26.43;12.70;;;-1.40;99.90;;;;;;5000271;28;20451;-42
2021/01/18 06:34:43;;;;;;;27.00;15.50;;;-1.40;99.90;;;;;;4999821;28;20511;-49
2021/01/18 06:37:19;;;;;;;33.07;17.13;;;-1.40;99.90;;;;;;5000059;28;20431;-44
2021/01/18 06:39:46;;;;;;;34.57;16.27;;;-1.40;99.90;;;;;;4999490;28;20475;-43
2021/01/18 06:42:21;;;;;;;30.87;15.60;;;-1.40;99.90;;;;;;4999057;28;20450;-45
2021/01/18 06:44:48;;;;;;;32.73;15.80;;;-1.40;99.90;;;;;;4998570;28;20450;-45
2021/01/18 06:47:26;;;;;;;34.83;15.93;;;-1.40;99.90;;;;;;4998161;28;20439;-43
2021/01/18 06:49:54;;;;;;;33.13;16.23;;;-1.30;99.90;;;;;;4998755;28;20466;-49
2021/01/18 06:52:29;;;;;;;36.10;15.77;;;-1.30;99.90;;;;;;4998028;28;20443;-41
2021/01/18 06:55:05;;;;;;;30.40;16.00;;;-1.40;99.90;;;;;;4998520;28;20423;-47
2021/01/18 06:57:52;;;;;;;34.90;16.83;;;-1.40;99.90;;;;;;4998177;28;20426;-43
2021/01/18 07:00:22;;;;;;;32.23;16.30;;;-1.40;99.90;;;;;;4985847;28;20466;-45
2021/01/18 07:02:55;;;;;;;36.40;15.90;;;-1.40;99.90;;;;;;4997477;28;20470;-46
2021/01/18 07:05:36;;;;;;;35.50;16.83;;;-1.40;99.90;;;;;;4997748;28;20490;-44
2021/01/18 07:08:16;;;;;;;30.47;18.17;;;-1.40;99.90;;;;;;4997823;28;20447;-44
2021/01/18 07:10:46;;;;;;;36.23;16.80;;;-1.40;99.90;;;;;;4998027;28;20431;-42
2021/01/18 07:13:13;;;;;;;34.50;14.70;;;-1.30;99.90;;;;;;4998299;28;20478;-42
2021/01/18 07:15:42;;;;;;;36.07;17.57;;;-1.20;99.90;;;;;;4997981;28;20451;-43
2021/01/18 07:18:10;;;;;;;38.43;18.83;;;-1.30;99.90;;;;;;4997857;28;20478;-43
2021/01/18 07:20:41;;;;;;;29.93;14.90;;;-1.30;99.90;;;;;;4997720;28;20447;-42
2021/01/18 07:23:38;;;;;;;28.57;16.93;;;-1.20;99.90;;;;;;4997468;28;20443;-41
2021/01/18 07:26:30;;;;;;;29.70;17.50;;;-1.20;99.90;;;;;;4997170;28;20463;-41
2021/01/18 07:29:03;;;;;;;30.90;14.00;;;-1.20;99.90;;;;;;4997220;28;20427;-43
2021/01/18 07:31:31;;;;;;;29.90;15.73;;;-1.30;99.90;;;;;;4996731;28;20461;-42
2021/01/18 07:33:58;;;;;;;33.83;19.57;;;-1.30;99.90;;;;;;4989739;28;20443;-43
2021/01/18 07:36:27;;;;;;;39.20;15.43;;;-1.30;99.90;;;;;;4997179;28;20443;-44
2021/01/18 07:38:53;;;;;;;31.70;16.47;;;-1.20;99.90;;;;;;4997405;28;20521;-45
2021/01/18 07:41:29;;;;;;;36.07;17.47;;;-1.20;99.90;;;;;;4997453;28;20469;-50
2021/01/18 07:43:57;;;;;;;34.60;17.67;;;-1.10;99.90;;;;;;4997110;28;20439;-50
2021/01/18 07:46:39;;;;;;;37.57;19.13;;;-1.10;99.90;;;;;;4997338;28;20454;-47
2021/01/18 07:49:35;;;;;;;30.77;17.10;;;-1.10;99.90;;;;;;4997827;28;20442;-55
2021/01/18 07:52:27;;;;;;;35.13;16.30;;;-1.10;99.90;;;;;;4997678;28;20411;-47
2021/01/18 07:54:56;;;;;;;35.70;19.00;;;-1.20;99.90;;;;;;4997875;28;20415;-48
2021/01/18 07:57:30;;;;;;;41.97;19.53;;;-1.10;99.90;;;;;;4998236;28;20470;-52
2021/01/18 08:00:23;;;;;;;31.50;17.10;;;-1.10;99.90;;;;;;4998200;28;20498;-49
2021/01/18 08:02:52;;;;;;;49.87;21.53;;;-1.00;99.90;;;;;;4997494;28;20479;-41
2021/01/18 08:05:23;;;;;;;36.37;18.60;;;-1.00;99.90;;;;;;4997409;28;20439;-48
2021/01/18 08:08:07;;;;;;;33.47;18.13;;;-1.00;99.90;;;;;;4997443;28;20463;-48
2021/01/18 08:10:54;;;;;;;41.40;18.70;;;-1.00;99.90;;;;;;4997383;28;20419;-44
2021/01/18 08:13:50;;;;;;;34.10;17.80;;;-1.00;99.90;;;;;;4997224;28;20431;-47
2021/01/18 08:16:19;;;;;;;31.97;18.80;;;-1.00;99.90;;;;;;4997483;28;20434;-49
2021/01/18 08:18:58;;;;;;;34.10;18.90;;;-1.00;99.90;;;;;;4996909;28;20489;-44
2021/01/18 08:21:54;;;;;;;33.60;18.30;;;-0.90;99.90;;;;;;4997083;28;20431;-43
2021/01/18 08:24:53;;;;;;;35.23;17.07;;;-0.90;99.90;;;;;;4996785;28;20466;-45
2021/01/18 08:27:41;;;;;;;32.40;17.67;;;-0.90;99.90;;;;;;4996958;28;20450;-43
2021/01/18 08:30:27;;;;;;;36.63;19.27;;;-0.80;99.90;;;;;;4972825;28;20451;-42
2021/01/18 08:32:58;;;;;;;33.77;15.93;;;-0.80;99.90;;;;;;4997257;28;20458;-49
2021/01/18 08:35:29;;;;;;;34.03;18.93;;;-0.80;99.90;;;;;;4997477;28;20418;-47
2021/01/18 08:38:00;;;;;;;33.80;18.33;;;-0.80;99.90;;;;;;4997101;28;20443;-50
2021/01/18 08:40:41;;;;;;;34.10;20.10;;;-0.80;99.90;;;;;;4997768;28;20427;-43
2021/01/18 08:43:10;;;;;;;34.03;18.27;;;-0.80;99.90;;;;;;4998254;28;20438;-47
2021/01/18 08:45:39;;;;;;;37.30;19.97;;;-0.80;99.90;;;;;;4998314;28;20458;-50
2021/01/18 08:48:08;;;;;;;33.57;16.60;;;-0.70;99.90;;;;;;4998247;28;20447;-48
2021/01/18 08:50:53;;;;;;;34.40;16.57;;;-0.80;99.90;;;;;;5001036;28;20531;-46
2021/01/18 08:53:32;;;;;;;32.90;15.30;;;-0.70;99.90;;;;;;4999815;28;20435;-43
2021/01/18 08:56:04;;;;;;;30.50;16.87;;;-0.60;99.90;;;;;;4998860;28;20435;-43
2021/01/18 08:58:39;;;;;;;30.97;18.80;;;-0.60;99.90;;;;;;5000360;28;20494;-47
2021/01/18 09:01:09;;;;;;;33.00;18.07;;;-0.60;99.90;;;;;;5000147;28;20431;-50
2021/01/18 09:03:35;;;;;;;32.37;17.10;;;-0.60;99.90;;;;;;4998245;28;20494;-42
2021/01/18 09:06:03;;;;;;;34.77;18.77;;;-0.50;99.90;;;;;;4997492;28;20446;-42
2021/01/18 09:08:30;;;;;;;29.87;15.63;;;-0.50;99.90;;;;;;4999565;28;20459;-49
2021/01/18 09:10:57;;;;;;;34.80;17.03;;;-0.50;99.90;;;;;;4991583;28;20441;-47
2021/01/18 09:13:26;;;;;;;41.70;18.27;;;-0.50;99.90;;;;;;4999547;28;20484;-52
2021/01/18 09:15:54;;;;;;;32.50;16.50;;;-0.50;99.90;;;;;;4999686;28;20475;-52
2021/01/18 09:18:22;;;;;;;33.97;17.83;;;-0.40;99.90;;;;;;5000156;28;20478;-49
2021/01/18 09:20:50;;;;;;;32.00;17.40;;;-0.40;99.90;;;;;;4996753;28;20923;-43
2021/01/18 09:23:18;;;;;;;47.77;20.67;;;-0.30;99.90;;;;;;4993264;28;20478;-45
2021/01/18 09:25:45;;;;;;;49.53;21.80;;;-0.30;99.90;;;;;;4999545;28;20447;-45
2021/01/18 09:28:14;;;;;;;50.90;21.43;;;-0.30;99.90;;;;;;5000238;28;20462;-45
2021/01/18 09:30:42;;;;;;;36.03;17.60;;;-0.30;99.90;;;;;;4991659;28;20455;-42
2021/01/18 09:33:10;;;;;;;35.70;21.40;;;-0.30;99.90;;;;;;4972659;29;20452;-44
2021/01/18 09:35:38;;;;;;;35.37;20.93;;;-0.10;99.90;;;;;;4993882;28;20443;-44
2021/01/18 09:38:06;;;;;;;37.80;19.90;;;-0.10;99.90;;;;;;4999909;28;20447;-43
2021/01/18 09:40:36;;;;;;;33.20;19.10;;;0.00;99.90;;;;;;4999775;28;20458;-45
2021/01/18 09:43:03;;;;;;;38.30;20.70;;;0.00;99.90;;;;;;4999403;28;20443;-44
2021/01/18 09:48:07;;;;;;;42.40;19.67;;;0.00;99.90;;;;;;5231189;23;20467;-51
2021/01/18 09:50:36;;;;;;;40.23;21.93;;;0.00;99.90;;;;;;4979364;28;20448;-49
2021/01/18 09:53:05;;;;;;;37.80;20.57;;;0.00;99.90;;;;;;4979369;29;20439;-52
2021/01/18 09:55:36;;;;;;;40.60;22.97;;;0.00;99.90;;;;;;4980021;29;20447;-50
2021/01/18 09:58:07;;;;;;;46.90;23.63;;;0.00;99.90;;;;;;4998752;28;20471;-49
2021/01/18 10:00:41;;;;;;;40.03;21.40;;;0.00;99.90;;;;;;4998859;28;20518;-45
2021/01/18 10:03:08;;;;;;;52.87;22.20;;;0.00;99.90;;;;;;4999276;28;20459;-48
2021/01/18 10:05:39;;;;;;;36.13;18.77;;;0.00;99.90;;;;;;4999675;28;20447;-52
2021/01/18 10:08:12;;;;;;;36.00;18.10;;;0.10;99.90;;;;;;4998070;28;20447;-47
2021/01/18 10:10:43;;;;;;;41.27;20.67;;;0.10;99.90;;;;;;4999358;28;20482;-50
2021/01/18 10:13:16;;;;;;;39.03;19.60;;;0.10;99.90;;;;;;4999664;28;20470;-44
2021/01/18 10:15:43;;;;;;;38.43;20.20;;;0.20;99.90;;;;;;4999003;28;20450;-43
2021/01/18 10:18:28;;;;;;;39.50;22.87;;;0.20;99.90;;;;;;4998963;28;20478;-43
2021/01/18 10:20:55;;;;;;;33.13;18.87;;;0.40;99.90;;;;;;4998569;28;20451;-47
2021/01/18 10:23:23;;;;;;;49.17;22.63;;;0.60;99.90;;;;;;4998464;28;20442;-43
2021/01/18 10:25:51;;;;;;;46.33;21.40;;;0.60;99.90;;;;;;4977452;28;20456;-44
2021/01/18 10:28:19;;;;;;;49.50;23.23;;;0.60;99.90;;;;;;4967655;29;20451;-43
2021/01/18 10:30:48;;;;;;;38.37;22.97;;;0.60;99.90;;;;;;4979091;28;20440;-47
2021/01/18 10:33:17;;;;;;;51.13;22.77;;;0.60;99.90;;;;;;4989593;28;20455;-45
2021/01/18 10:35:45;;;;;;;40.17;22.30;;;0.50;99.90;;;;;;4992919;28;20474;-45
2021/01/18 10:38:17;;;;;;;36.37;19.43;;;0.50;99.90;;;;;;4990867;28;20436;-47
2021/01/18 10:41:00;;;;;;;37.07;20.83;;;0.50;99.90;;;;;;4982429;28;20455;-49
2021/01/18 10:43:30;;;;;;;38.50;21.83;;;0.60;99.90;;;;;;4978756;28;20434;-45
2021/01/18 10:45:57;;;;;;;36.23;19.03;;;0.60;99.90;;;;;;4979204;28;20440;-45
2021/01/18 10:48:29;;;;;;;38.43;20.23;;;0.60;99.90;;;;;;4989413;28;20489;-50
2021/01/18 10:50:57;;;;;;;33.57;19.10;;;0.60;99.90;;;;;;4986982;28;20483;-45
2021/01/18 10:53:28;;;;;;;37.63;20.40;;;0.70;99.90;;;;;;4982086;28;20471;-52
2021/01/18 10:56:10;;;;;;;41.07;20.77;;;0.70;99.90;;;;;;4980958;28;20420;-48
2021/01/18 10:58:39;;;;;;;37.23;22.80;;;0.80;99.90;;;;;;4984714;28;20515;-42
2021/01/18 11:01:10;;;;;;;42.20;21.27;;;0.80;99.90;;;;;;4977727;28;20471;-43
2021/01/18 11:03:37;;;;;;;40.07;21.53;;;0.80;99.90;;;;;;4974941;28;20467;-44
2021/01/18 11:06:12;;;;;;;32.93;19.73;;;0.90;99.90;;;;;;4971096;28;20535;-45
2021/01/18 11:08:39;;;;;;;35.80;20.30;;;0.90;99.90;;;;;;4982823;28;20454;-45
2021/01/18 11:11:21;;;;;;;36.63;21.27;;;1.00;99.90;;;;;;4974966;28;20446;-42
2021/01/18 11:13:58;;;;;;;40.67;20.50;;;1.00;99.90;;;;;;4970590;28;20548;-47
2021/01/18 11:16:35;;;;;;;50.83;21.40;;;1.10;99.90;;;;;;4975326;28;20446;-44
2021/01/18 11:19:02;;;;;;;50.67;23.23;;;1.10;99.90;;;;;;4978060;29;20490;-43
2021/01/18 11:21:29;;;;;;;37.37;21.40;;;1.20;99.90;;;;;;4980028;28;20471;-48
2021/01/18 11:23:56;;;;;;;35.70;20.67;;;1.20;99.90;;;;;;4989888;28;20431;-46
2021/01/18 11:26:25;;;;;;;36.17;19.17;;;1.20;99.90;;;;;;4988078;28;20463;-45
2021/01/18 11:28:54;;;;;;;47.03;22.00;;;1.20;99.90;;;;;;4973503;28;20486;-44
2021/01/18 11:31:21;;;;;;;45.90;22.70;;;1.10;99.90;;;;;;4978282;28;20506;-41
2021/01/18 11:33:48;;;;;;;35.90;19.63;;;1.10;99.90;;;;;;4978158;28;20487;-42
2021/01/18 11:36:15;;;;;;;44.17;22.33;;;1.00;99.90;;;;;;4983393;28;20451;-45
2021/01/18 11:38:41;;;;;;;51.47;21.90;;;1.10;99.90;;;;;;4982321;28;20607;-42
2021/01/18 11:41:08;;;;;;;44.70;21.77;;;1.10;99.90;;;;;;4983665;28;20482;-46
2021/01/18 11:43:35;;;;;;;42.20;20.57;;;1.20;99.90;;;;;;4977663;28;20901;-48
2021/01/18 11:46:03;;;;;;;40.83;21.47;;;1.10;99.90;;;;;;4977227;28;20443;-46
2021/01/18 11:48:30;;;;;;;35.40;22.20;;;1.20;99.90;;;;;;4983337;28;20507;-44
2021/01/18 11:50:56;;;;;;;37.10;20.90;;;1.20;99.90;;;;;;4977346;28;20519;-43
2021/01/18 11:53:23;;;;;;;42.27;22.03;;;1.20;99.90;;;;;;4991376;28;20509;-43
2021/01/18 11:55:52;;;;;;;45.80;22.37;;;1.30;99.90;;;;;;4981623;28;20459;-42
2021/01/18 11:59:05;;;;;;;55.50;25.40;;;1.20;99.90;;;;;;4971172;28;20448;-42
2021/01/18 12:01:33;;;;;;;44.73;21.17;;;1.20;99.90;;;;;;4995005;28;20457;-41
2021/01/18 12:04:00;;;;;;;43.93;23.70;;;1.20;99.90;;;;;;4988943;28;20486;-45
2021/01/18 12:06:33;;;;;;;41.33;20.60;;;1.20;99.90;;;;;;4977981;28;20530;-42
2021/01/18 12:09:00;;;;;;;44.63;22.07;;;1.30;99.90;;;;;;4971771;28;20432;-45
2021/01/18 12:11:27;;;;;;;42.17;21.03;;;1.30;99.90;;;;;;4978427;28;20507;-48
2021/01/18 12:13:54;;;;;;;43.80;22.73;;;1.30;99.90;;;;;;4983720;28;20423;-47
2021/01/18 12:16:25;;;;;;;50.67;24.57;;;1.30;99.90;;;;;;4989650;28;20535;-43
2021/01/18 12:18:52;;;;;;;39.27;21.53;;;1.40;99.90;;;;;;4990105;28;20486;-43
2021/01/18 12:21:20;;;;;;;46.83;26.53;;;1.40;99.90;;;;;;4991422;28;20443;-45
2021/01/18 12:23:46;;;;;;;44.43;23.67;;;1.40;99.90;;;;;;4989594;28;20501;-47
2021/01/18 12:26:16;;;;;;;37.53;20.17;;;1.50;99.90;;;;;;4988287;28;20458;-46
2021/01/18 12:28:43;;;;;;;54.00;25.73;;;1.50;99.90;;;;;;4974267;29;20462;-49
2021/01/18 12:31:10;;;;;;;40.23;22.10;;;2.40;99.90;;;;;;4976266;28;20455;-47
2021/01/18 12:33:37;;;;;;;50.10;22.47;;;2.40;99.90;;;;;;4992933;28;21008;-47
2021/01/18 12:36:06;;;;;;;44.17;23.30;;;2.20;99.90;;;;;;4989529;28;20451;-45
2021/01/18 12:38:32;;;;;;;44.03;24.30;;;2.10;99.90;;;;;;4990476;28;20486;-42
2021/01/18 12:40:59;;;;;;;44.33;21.77;;;2.00;99.90;;;;;;4989213;28;20461;-43
2021/01/18 12:43:26;;;;;;;51.33;23.20;;;1.90;99.90;;;;;;4989537;28;20446;-42
2021/01/18 12:45:55;;;;;;;58.70;25.20;;;1.80;99.90;;;;;;4989621;28;20873;-42
2021/01/18 12:48:22;;;;;;;56.00;25.40;;;1.80;99.90;;;;;;4989325;28;20569;-47
2021/01/18 12:50:49;;;;;;;36.50;23.70;;;1.80;99.90;;;;;;4989306;28;20502;-45
2021/01/18 12:55:57;;;;;;;50.57;23.07;;;1.80;99.90;;;;;;4988876;28;20442;-42
2021/01/18 12:58:24;;;;;;;47.50;22.23;;;1.90;99.90;;;;;;4988698;28;20482;-44